Time;durP1;ratioP1;P1;durP2;ratioP2;P2;SDS_P1;SDS_P2;PMS_P1;PMS_P2;Temp;Humidity;BMP_temperature;BMP_pressure;BME280_temperature;BME280_humidity;BME280_pressure;Samples;Min_cycle;Max_cycle;Signal;HPM_P1;HPM_P2
2023/05/26 00:01:48;;;;;;;;;;;;;;;14.49;96.74;95229.56;5114742;28;981;-54
2023/05/26 00:04:17;;;;;;;;;;;;;;;14.51;96.09;95224.84;5114802;28;1063;-55
2023/05/26 00:06:52;;;;;;;;;;;;;;;14.60;95.99;95225.63;5114539;28;2003;-54
2023/05/26 00:09:21;;;;;;;;;;;;;;;14.52;96.31;95226.53;5114521;28;1053;-54
2023/05/26 00:11:48;;;;;;;;;;;;;;;14.11;96.69;95212.63;5114704;28;1032;-55
2023/05/26 00:14:14;;;;;;;;;;;;;;;13.95;96.85;95221.66;5114366;28;1047;-54
2023/05/26 00:16:40;;;;;;;;;;;;;;;14.14;96.53;95217.66;5114664;28;1054;-54
2023/05/26 00:19:07;;;;;;;;;;;;;;;14.39;95.34;95223.63;5114199;28;1128;-55
2023/05/26 00:21:35;;;;;;;;;;;;;;;14.32;95.70;95228.88;5114341;28;973;-55
2023/05/26 00:24:01;;;;;;;;;;;;;;;14.19;97.03;95234.91;5114106;28;1045;-54
2023/05/26 00:26:27;;;;;;;;;;;;;;;14.09;95.55;95236.16;5118867;27;1972;-54
2023/05/26 00:28:53;;;;;;;;;;;;;;;14.05;95.87;95231.13;5134814;27;1039;-55
2023/05/26 00:31:19;;;;;;;;;;;;;;;13.93;96.19;95232.59;5134102;27;1083;-55
2023/05/26 00:33:45;;;;;;;;;;;;;;;14.00;97.16;95221.94;5134581;27;1208;-55
2023/05/26 00:36:11;;;;;;;;;;;;;;;14.01;97.34;95218.25;5134622;27;1035;-54
2023/05/26 00:38:37;;;;;;;;;;;;;;;14.04;97.64;95213.34;5134757;27;1275;-54
2023/05/26 00:41:03;;;;;;;;;;;;;;;14.10;97.50;95216.34;5134484;27;1004;-55
2023/05/26 00:43:29;;;;;;;;;;;;;;;14.20;98.05;95222.28;5134391;27;1053;-55
2023/05/26 00:45:55;;;;;;;;;;;;;;;14.26;96.99;95216.19;5134605;27;2012;-54
2023/05/26 00:48:21;;;;;;;;;;;;;;;14.13;95.31;95219.47;5134746;27;1060;-53
2023/05/26 00:50:47;;;;;;;;;;;;;;;13.69;95.61;95224.72;5133378;27;2957;-55
2023/05/26 00:53:14;;;;;;;;;;;;;;;13.41;97.94;95223.38;5133474;27;2895;-55
2023/05/26 00:55:41;;;;;;;;;;;;;;;13.40;97.90;95224.38;5134255;28;1103;-54
2023/05/26 00:58:07;;;;;;;;;;;;;;;13.33;98.12;95230.63;5134247;27;949;-55
2023/05/26 01:00:33;;;;;;;;;;;;;;;13.39;97.35;95232.59;5134519;28;997;-55
2023/05/26 01:02:59;;;;;;;;;;;;;;;13.53;97.23;95231.03;5134103;28;1004;-55
2023/05/26 01:05:25;;;;;;;;;;;;;;;13.60;97.05;95230.16;5134083;28;1984;-55
2023/05/26 01:07:51;;;;;;;;;;;;;;;13.62;96.44;95232.63;5134488;28;1039;-55
2023/05/26 01:10:17;;;;;;;;;;;;;;;13.66;97.32;95237.50;5134237;28;1057;-54
2023/05/26 01:12:52;;;;;;;;;;;;;;;13.59;96.83;95233.84;5134144;28;1003;-55
2023/05/26 01:15:21;;;;;;;;;;;;;;;13.59;98.14;95235.69;5134389;28;984;-55
2023/05/26 01:17:55;;;;;;;;;;;;;;;13.58;97.71;95228.63;5134326;28;1043;-55
2023/05/26 01:20:25;;;;;;;;;;;;;;;13.52;95.08;95234.72;5134185;28;1036;-55
2023/05/26 01:23:06;;;;;;;;;;;;;;;13.46;95.18;95233.59;5134088;28;1055;-55
2023/05/26 01:25:56;;;;;;;;;;;;;;;13.21;94.96;95252.47;5133950;28;1909;-55
2023/05/26 01:28:25;;;;;;;;;;;;;;;12.96;96.40;95241.00;5095785;28;1263;-55
2023/05/26 01:30:51;;;;;;;;;;;;;;;13.00;96.77;95245.00;5113379;28;1049;-55
2023/05/26 01:33:17;;;;;;;;;;;;;;;13.08;96.79;95239.59;5113782;28;1040;-55
2023/05/26 01:35:44;;;;;;;;;;;;;;;13.19;96.41;95242.94;5113313;28;1870;-55
2023/05/26 01:38:10;;;;;;;;;;;;;;;13.04;97.11;95248.19;5113501;28;957;-55
2023/05/26 01:40:38;;;;;;;;;;;;;;;13.00;95.92;95245.00;5113627;28;961;-55
2023/05/26 01:43:08;;;;;;;;;;;;;;;13.13;97.16;95243.59;5113620;28;1018;-55
2023/05/26 01:45:38;;;;;;;;;;;;;;;13.16;96.09;95240.59;5099206;28;1898;-55
2023/05/26 01:48:06;;;;;;;;;;;;;;;13.03;96.47;95235.78;5117471;28;1265;-55
2023/05/26 01:50:33;;;;;;;;;;;;;;;13.07;97.31;95243.31;5116960;28;1097;-55
2023/05/26 01:53:02;;;;;;;;;;;;;;;13.19;98.41;95234.88;5117231;28;1052;-55
2023/05/26 01:55:28;;;;;;;;;;;;;;;13.19;97.27;95232.19;5116982;28;1114;-55
2023/05/26 01:57:56;;;;;;;;;;;;;;;13.16;96.12;95230.69;5117050;28;1084;-55
2023/05/26 02:00:25;;;;;;;;;;;;;;;13.03;95.95;95239.31;5116925;28;1049;-55
2023/05/26 02:02:51;;;;;;;;;;;;;;;12.88;96.13;95241.03;5117089;28;984;-55
2023/05/26 02:05:17;;;;;;;;;;;;;;;12.55;96.57;95235.75;5116727;28;2132;-55
2023/05/26 02:07:45;;;;;;;;;;;;;;;12.58;96.82;95235.44;5116828;28;1056;-55
2023/05/26 02:10:11;;;;;;;;;;;;;;;12.51;97.32;95234.44;5116890;28;1041;-55
2023/05/26 02:12:37;;;;;;;;;;;;;;;12.49;97.74;95226.56;5116917;28;1029;-55
2023/05/26 02:15:03;;;;;;;;;;;;;;;12.53;98.75;95234.25;5116663;28;1034;-55
2023/05/26 02:17:30;;;;;;;;;;;;;;;12.44;97.85;95231.56;5116648;28;1049;-55
2023/05/26 02:19:57;;;;;;;;;;;;;;;12.48;97.04;95234.75;5116682;28;1040;-55
2023/05/26 02:22:23;;;;;;;;;;;;;;;12.56;97.04;95240.13;5123856;27;2228;-55
2023/05/26 02:24:49;;;;;;;;;;;;;;;12.70;97.85;95236.72;5136198;27;2849;-55
2023/05/26 02:27:15;;;;;;;;;;;;;;;12.78;96.73;95237.72;5137212;27;1146;-55
2023/05/26 02:29:41;;;;;;;;;;;;;;;12.55;97.68;95241.13;5136965;27;936;-55
2023/05/26 02:32:07;;;;;;;;;;;;;;;12.63;98.58;95241.09;5136751;27;1060;-55
2023/05/26 02:34:33;;;;;;;;;;;;;;;12.74;98.57;95234.53;5137061;27;984;-55
2023/05/26 02:36:59;;;;;;;;;;;;;;;12.80;97.65;95233.00;5136838;27;1082;-55
2023/05/26 02:39:25;;;;;;;;;;;;;;;12.77;96.43;95239.56;5136883;27;1048;-55
2023/05/26 02:41:52;;;;;;;;;;;;;;;12.52;96.51;95237.94;5136779;27;976;-55
2023/05/26 02:44:18;;;;;;;;;;;;;;;12.42;96.48;95235.44;5136676;27;1080;-55
2023/05/26 02:46:44;;;;;;;;;;;;;;;12.34;96.27;95247.03;5136799;27;1991;-55
2023/05/26 02:49:10;;;;;;;;;;;;;;;12.43;96.52;95246.00;5137111;27;990;-55
2023/05/26 02:51:37;;;;;;;;;;;;;;;12.21;96.54;95255.56;5136679;27;967;-55
2023/05/26 02:54:03;;;;;;;;;;;;;;;12.43;96.82;95256.75;5136030;27;1431;-55
2023/05/26 02:56:29;;;;;;;;;;;;;;;12.55;96.78;95257.22;5136750;27;992;-55
2023/05/26 02:58:55;;;;;;;;;;;;;;;12.43;97.13;95261.28;5136457;27;997;-55
2023/05/26 03:01:24;;;;;;;;;;;;;;;12.40;96.61;95259.75;5136396;27;976;-55
2023/05/26 03:03:50;;;;;;;;;;;;;;;12.42;97.25;95256.91;5136437;27;977;-55
2023/05/26 03:06:16;;;;;;;;;;;;;;;12.29;97.04;95260.09;5136103;27;2006;-55
2023/05/26 03:08:42;;;;;;;;;;;;;;;12.27;96.68;95262.09;5136361;27;1028;-56
2023/05/26 03:11:08;;;;;;;;;;;;;;;12.13;96.27;95262.81;5136230;27;1034;-55
2023/05/26 03:13:34;;;;;;;;;;;;;;;12.17;97.66;95266.81;5136157;27;1105;-56
2023/05/26 03:16:00;;;;;;;;;;;;;;;12.38;96.93;95264.44;5135733;27;1066;-56
2023/05/26 03:18:26;;;;;;;;;;;;;;;12.42;97.06;95259.59;5135963;27;1088;-55
2023/05/26 03:20:52;;;;;;;;;;;;;;;12.43;96.29;95262.09;5136089;27;1044;-56
2023/05/26 03:23:18;;;;;;;;;;;;;;;12.54;96.84;95260.91;5117623;27;1057;-56
2023/05/26 03:25:45;;;;;;;;;;;;;;;12.43;96.85;95263.94;5134749;27;3008;-55
2023/05/26 03:28:11;;;;;;;;;;;;;;;12.48;97.20;95269.63;5134813;27;2596;-55
2023/05/26 03:30:37;;;;;;;;;;;;;;;12.50;96.76;95275.66;5133674;27;3126;-55
2023/05/26 03:33:03;;;;;;;;;;;;;;;12.47;97.37;95273.31;5135571;27;1041;-55
2023/05/26 03:35:29;;;;;;;;;;;;;;;12.69;97.97;95267.25;5135768;27;1044;-55
2023/05/26 03:37:54;;;;;;;;;;;;;;;12.85;96.57;95270.91;5135742;27;1036;-55
2023/05/26 03:40:21;;;;;;;;;;;;;;;12.96;96.41;95270.53;5135696;27;1008;-55
2023/05/26 03:42:47;;;;;;;;;;;;;;;13.02;96.78;95267.16;5135841;27;1344;-55
2023/05/26 03:45:12;;;;;;;;;;;;;;;13.02;96.50;95271.69;5135377;27;2024;-55
2023/05/26 03:47:38;;;;;;;;;;;;;;;13.18;96.67;95274.28;5135640;27;940;-55
2023/05/26 03:50:05;;;;;;;;;;;;;;;13.35;95.80;95267.03;5135424;27;981;-54
2023/05/26 03:52:32;;;;;;;;;;;;;;;13.41;95.42;95277.09;5135552;27;1020;-55
2023/05/26 03:54:58;;;;;;;;;;;;;;;13.60;93.45;95270.44;5135210;27;1085;-55
2023/05/26 03:57:24;;;;;;;;;;;;;;;13.60;94.14;95275.81;5135293;27;973;-55
2023/05/26 03:59:50;;;;;;;;;;;;;;;13.52;94.67;95272.34;5135217;27;1039;-55
2023/05/26 04:02:16;;;;;;;;;;;;;;;13.65;94.17;95281.47;5135059;27;1052;-55
2023/05/26 04:04:42;;;;;;;;;;;;;;;13.77;94.29;95275.69;5116694;27;1905;-55
2023/05/26 04:07:08;;;;;;;;;;;;;;;13.92;93.19;95279.28;5134613;27;1052;-55
2023/05/26 04:09:34;;;;;;;;;;;;;;;13.88;93.43;95285.22;5134948;27;1887;-55
2023/05/26 04:12:00;;;;;;;;;;;;;;;13.96;93.84;95280.63;5135038;27;1007;-55
2023/05/26 04:14:26;;;;;;;;;;;;;;;14.34;92.34;95282.50;5135105;27;957;-55
2023/05/26 04:16:52;;;;;;;;;;;;;;;14.74;90.84;95275.97;5134845;27;1053;-55
2023/05/26 04:19:18;;;;;;;;;;;;;;;15.08;88.75;95276.41;5134969;27;1120;-55
2023/05/26 04:21:45;;;;;;;;;;;;;;;15.31;88.79;95269.09;5135040;27;980;-55
2023/05/26 04:24:11;;;;;;;;;;;;;;;15.20;89.85;95277.63;5134648;27;1052;-55
2023/05/26 04:26:37;;;;;;;;;;;;;;;15.15;90.73;95275.50;5134846;27;1902;-55
2023/05/26 04:29:03;;;;;;;;;;;;;;;15.19;90.16;95275.97;5134756;27;1031;-56
2023/05/26 04:31:30;;;;;;;;;;;;;;;15.40;88.64;95272.50;5134566;27;1046;-55
2023/05/26 04:33:56;;;;;;;;;;;;;;;15.57;88.62;95275.81;5134562;27;1064;-55
2023/05/26 04:36:25;;;;;;;;;;;;;;;15.66;85.74;95280.06;5134418;27;1120;-55
2023/05/26 04:38:51;;;;;;;;;;;;;;;15.94;87.51;95284.78;5134538;27;1073;-55
2023/05/26 04:41:18;;;;;;;;;;;;;;;15.94;86.19;95280.22;5134400;27;1041;-55
2023/05/26 04:43:45;;;;;;;;;;;;;;;16.14;86.25;95280.44;5134508;27;1040;-55
2023/05/26 04:46:11;;;;;;;;;;;;;;;16.14;84.52;95277.75;5134239;27;1906;-55
2023/05/26 04:48:38;;;;;;;;;;;;;;;16.22;84.85;95275.91;5134631;27;1016;-55
2023/05/26 04:51:04;;;;;;;;;;;;;;;16.29;85.48;95280.34;5134488;27;1020;-55
2023/05/26 04:53:30;;;;;;;;;;;;;;;16.21;85.63;95285.88;5134434;27;1075;-55
2023/05/26 04:55:58;;;;;;;;;;;;;;;16.32;85.11;95288.06;5134644;27;1084;-55
2023/05/26 04:58:24;;;;;;;;;;;;;;;16.58;83.00;95295.56;5134506;28;1013;-55
2023/05/26 05:00:50;;;;;;;;;;;;;;;16.75;81.46;95285.31;5134092;28;917;-55
2023/05/26 05:03:16;;;;;;;;;;;;;;;16.84;81.62;95296.81;5115988;28;957;-55
2023/05/26 05:05:42;;;;;;;;;;;;;;;16.62;82.01;95281.66;5134347;28;1910;-55
2023/05/26 05:08:08;;;;;;;;;;;;;;;16.62;80.31;95289.75;5134334;28;1044;-56
2023/05/26 05:10:34;;;;;;;;;;;;;;;16.85;79.70;95289.56;5134083;28;1052;-56
2023/05/26 05:13:00;;;;;;;;;;;;;;;17.10;80.11;95282.66;5134251;28;1058;-55
2023/05/26 05:15:26;;;;;;;;;;;;;;;17.16;79.85;95284.56;5134002;28;976;-54
2023/05/26 05:17:53;;;;;;;;;;;;;;;17.42;79.23;95283.06;5135616;27;1909;-55
2023/05/26 05:20:19;;;;;;;;;;;;;;;17.16;82.79;95289.16;5138382;27;1059;-55
2023/05/26 05:22:46;;;;;;;;;;;;;;;16.63;81.02;95294.13;5138596;27;1070;-55
2023/05/26 05:25:11;;;;;;;;;;;;;;;16.74;82.94;95290.91;5138049;27;1902;-55
2023/05/26 05:27:38;;;;;;;;;;;;;;;17.06;82.26;95294.06;5119888;27;1302;-55
2023/05/26 05:30:04;;;;;;;;;;;;;;;17.44;82.56;95299.06;5119810;27;1053;-55
2023/05/26 05:32:31;;;;;;;;;;;;;;;17.70;79.05;95296.50;5138010;27;1139;-55
2023/05/26 05:34:57;;;;;;;;;;;;;;;17.64;82.35;95304.56;5138229;27;1269;-55
2023/05/26 05:37:23;;;;;;;;;;;;;;;17.57;80.84;95307.25;5138014;27;972;-55
2023/05/26 05:39:49;;;;;;;;;;;;;;;17.67;79.21;95305.00;5138070;27;1053;-55
2023/05/26 05:42:15;;;;;;;;;;;;;;;17.93;80.09;95292.66;5137814;27;1023;-55
2023/05/26 05:44:41;;;;;;;;;;;;;;;18.19;75.57;95294.56;5137702;27;1976;-55
2023/05/26 05:47:07;;;;;;;;;;;;;;;18.29;75.19;95294.19;5138048;27;1063;-55
2023/05/26 05:49:33;;;;;;;;;;;;;;;18.70;74.56;95299.44;5119336;27;1104;-54
2023/05/26 05:51:59;;;;;;;;;;;;;;;19.34;73.18;95301.69;5138008;27;960;-55
2023/05/26 05:54:25;;;;;;;;;;;;;;;19.58;72.63;95301.00;5137411;27;1063;-55
2023/05/26 05:56:51;;;;;;;;;;;;;;;19.72;72.36;95314.53;5137565;27;1037;-55
2023/05/26 05:59:17;;;;;;;;;;;;;;;19.90;72.15;95303.84;5137512;27;1012;-55
2023/05/26 06:01:43;;;;;;;;;;;;;;;19.68;71.38;95301.38;5137752;27;1047;-55
2023/05/26 06:04:09;;;;;;;;;;;;;;;20.06;70.91;95297.91;5137644;27;976;-55
2023/05/26 06:06:36;;;;;;;;;;;;;;;20.34;68.63;95293.19;5137457;27;1978;-55
2023/05/26 06:09:02;;;;;;;;;;;;;;;20.53;69.52;95300.34;5137348;27;999;-55
2023/05/26 06:11:28;;;;;;;;;;;;;;;20.46;72.33;95294.13;5137541;27;1020;-55
2023/05/26 06:13:54;;;;;;;;;;;;;;;20.60;69.88;95298.47;5119016;27;1045;-55
2023/05/26 06:16:20;;;;;;;;;;;;;;;20.58;70.28;95299.69;5137083;27;1639;-55
2023/05/26 06:18:46;;;;;;;;;;;;;;;20.67;70.96;95296.50;5137248;27;1058;-55
2023/05/26 06:21:12;;;;;;;;;;;;;;;21.20;69.90;95305.25;5137026;27;1049;-55
2023/05/26 06:23:38;;;;;;;;;;;;;;;21.64;67.56;95296.06;5119043;27;1034;-55
2023/05/26 06:26:04;;;;;;;;;;;;;;;21.90;69.19;95306.84;5118713;27;1909;-55
2023/05/26 06:28:30;;;;;;;;;;;;;;;22.05;67.00;95301.84;5136945;27;1321;-55
2023/05/26 06:30:56;;;;;;;;;;;;;;;22.32;66.70;95299.59;5136577;27;1049;-55
2023/05/26 06:33:22;;;;;;;;;;;;;;;22.28;67.90;95303.03;5136877;27;965;-55
2023/05/26 06:35:48;;;;;;;;;;;;;;;22.48;62.98;95300.00;5118610;27;1276;-55
2023/05/26 06:38:14;;;;;;;;;;;;;;;22.49;63.98;95297.06;5136814;27;913;-55
2023/05/26 06:40:40;;;;;;;;;;;;;;;22.61;65.05;95297.09;5136792;27;957;-55
2023/05/26 06:43:06;;;;;;;;;;;;;;;22.80;62.15;95304.16;5118445;27;973;-56
2023/05/26 06:45:32;;;;;;;;;;;;;;;23.01;63.18;95307.34;5136530;27;1906;-55
2023/05/26 06:47:58;;;;;;;;;;;;;;;23.10;63.56;95307.88;5136734;27;1052;-56
2023/05/26 06:50:25;;;;;;;;;;;;;;;22.96;64.01;95302.63;5134276;27;2620;-56
2023/05/26 06:52:51;;;;;;;;;;;;;;;22.76;63.64;95300.22;5136503;27;973;-55
2023/05/26 06:55:17;;;;;;;;;;;;;;;23.16;65.41;95299.59;5118070;27;1393;-55
2023/05/26 06:57:43;;;;;;;;;;;;;;;23.18;61.46;95294.75;5136606;27;961;-55
2023/05/26 07:00:10;;;;;;;;;;;;;;;23.47;61.79;95291.31;5136569;27;965;-55
2023/05/26 07:02:36;;;;;;;;;;;;;;;23.44;62.44;95289.84;5136548;27;1123;-55
2023/05/26 07:05:03;;;;;;;;;;;;;;;23.90;63.15;95292.78;5136078;27;1992;-55
2023/05/26 07:07:29;;;;;;;;;;;;;;;24.04;59.26;95285.16;5136310;27;953;-55
2023/05/26 07:09:55;;;;;;;;;;;;;;;24.13;57.74;95292.72;5136467;27;1878;-58
2023/05/26 07:12:21;;;;;;;;;;;;;;;23.93;59.19;95290.41;5117911;27;1057;-55
2023/05/26 07:14:47;;;;;;;;;;;;;;;24.26;58.44;95277.94;5136201;27;1108;-55
2023/05/26 07:17:14;;;;;;;;;;;;;;;24.58;58.97;95274.72;5136305;27;1087;-55
2023/05/26 07:19:40;;;;;;;;;;;;;;;24.44;58.04;95271.44;5135177;27;3024;-55
2023/05/26 07:22:06;;;;;;;;;;;;;;;24.38;57.01;95277.91;5114863;27;2876;-55
2023/05/26 07:24:32;;;;;;;;;;;;;;;24.34;56.22;95277.56;5115355;28;984;-55
2023/05/26 07:26:58;;;;;;;;;;;;;;;24.65;56.32;95269.94;5124151;27;1917;-55
2023/05/26 07:29:24;;;;;;;;;;;;;;;24.78;55.83;95273.44;5135919;27;1028;-55
2023/05/26 07:31:50;;;;;;;;;;;;;;;24.66;55.88;95277.06;5136047;27;1032;-55
2023/05/26 07:34:17;;;;;;;;;;;;;;;24.65;56.66;95280.88;5135480;27;1041;-55
2023/05/26 07:36:43;;;;;;;;;;;;;;;25.09;54.63;95278.31;5135632;27;1049;-55
2023/05/26 07:39:10;;;;;;;;;;;;;;;25.04;53.42;95271.94;5135695;27;964;-55
2023/05/26 07:41:36;;;;;;;;;;;;;;;25.10;54.92;95276.44;5135450;27;1202;-55
2023/05/26 07:44:02;;;;;;;;;;;;;;;24.81;54.38;95268.28;5135613;27;1052;-55
2023/05/26 07:46:28;;;;;;;;;;;;;;;24.57;55.98;95272.22;5135258;27;1996;-55
2023/05/26 07:48:54;;;;;;;;;;;;;;;24.32;54.18;95266.03;5135335;27;1104;-56
2023/05/26 07:51:20;;;;;;;;;;;;;;;24.26;57.04;95263.44;5135386;27;961;-55
2023/05/26 07:53:46;;;;;;;;;;;;;;;24.75;54.62;95264.63;5135125;27;1424;-55
2023/05/26 07:56:12;;;;;;;;;;;;;;;25.07;54.06;95261.31;5135186;27;1037;-55
2023/05/26 07:58:39;;;;;;;;;;;;;;;25.37;53.42;95268.38;5135219;27;1044;-55
2023/05/26 08:01:06;;;;;;;;;;;;;;;25.49;51.70;95258.16;5135163;27;1139;-55
2023/05/26 08:03:33;;;;;;;;;;;;;;;25.54;53.43;95256.59;5134039;27;3082;-55
2023/05/26 08:05:59;;;;;;;;;;;;;;;25.40;51.07;95253.34;5149728;27;2859;-55
2023/05/26 08:08:25;;;;;;;;;;;;;;;25.65;51.87;95251.00;5135262;27;1036;-55
2023/05/26 08:10:52;;;;;;;;;;;;;;;25.75;52.01;95250.28;5135258;27;1040;-55
2023/05/26 08:13:18;;;;;;;;;;;;;;;25.74;50.10;95253.28;5135164;27;1059;-55
2023/05/26 08:15:44;;;;;;;;;;;;;;;25.61;50.25;95255.31;5135148;27;1035;-55
2023/05/26 08:18:10;;;;;;;;;;;;;;;25.71;51.18;95260.09;5116750;27;997;-55
2023/05/26 08:20:36;;;;;;;;;;;;;;;25.69;51.50;95251.31;5135142;27;980;-55
2023/05/26 08:23:02;;;;;;;;;;;;;;;25.73;52.72;95248.91;5134767;27;1034;-55
2023/05/26 08:25:28;;;;;;;;;;;;;;;25.67;48.93;95250.75;5134505;27;1910;-55
2023/05/26 08:27:55;;;;;;;;;;;;;;;25.60;51.49;95241.88;5134877;27;1145;-56
2023/05/26 08:30:21;;;;;;;;;;;;;;;25.89;50.10;95246.06;5134628;27;1000;-55
2023/05/26 08:32:47;;;;;;;;;;;;;;;25.82;51.81;95244.59;5134931;27;1024;-55
2023/05/26 08:35:13;;;;;;;;;;;;;;;26.08;49.84;95243.84;5134580;27;961;-55
2023/05/26 08:37:39;;;;;;;;;;;;;;;25.98;52.92;95240.19;5134566;27;956;-55
2023/05/26 08:40:05;;;;;;;;;;;;;;;25.83;50.71;95251.75;5134019;27;1649;-55
2023/05/26 08:42:38;;;;;;;;;;;;;;;25.70;53.43;95242.00;5134351;27;1043;-55
2023/05/26 08:45:04;;;;;;;;;;;;;;;25.69;51.61;95243.91;5134301;27;1913;-55
2023/05/26 08:47:34;;;;;;;;;;;;;;;25.69;52.94;95240.34;5116395;27;1004;-56
2023/05/26 08:50:03;;;;;;;;;;;;;;;25.83;50.18;95238.06;5134230;27;1041;-55
2023/05/26 08:52:29;;;;;;;;;;;;;;;26.18;50.19;95232.22;5134140;27;1035;-55
2023/05/26 08:54:55;;;;;;;;;;;;;;;26.16;51.31;95226.16;5133256;27;2541;-56
2023/05/26 08:57:22;;;;;;;;;;;;;;;26.35;52.01;95223.91;5113514;28;989;-56
2023/05/26 08:59:49;;;;;;;;;;;;;;;26.60;48.33;95223.34;5113771;28;1068;-55
2023/05/26 09:02:15;;;;;;;;;;;;;;;26.54;52.54;95216.13;5113667;28;1057;-55
2023/05/26 09:04:41;;;;;;;;;;;;;;;26.60;50.36;95219.78;5113841;28;994;-56
2023/05/26 09:07:08;;;;;;;;;;;;;;;26.53;51.27;95216.38;5113889;28;1914;-56
2023/05/26 09:09:34;;;;;;;;;;;;;;;26.34;52.23;95213.19;5113446;28;1012;-55
2023/05/26 09:12:00;;;;;;;;;;;;;;;25.93;51.43;95207.25;5113589;28;1129;-55
2023/05/26 09:14:26;;;;;;;;;;;;;;;25.77;52.79;95209.78;5113783;28;1032;-56
2023/05/26 09:16:54;;;;;;;;;;;;;;;25.84;49.79;95195.91;5113701;28;965;-55
2023/05/26 09:19:20;;;;;;;;;;;;;;;26.24;49.00;95197.47;5113597;28;1133;-56
2023/05/26 09:21:46;;;;;;;;;;;;;;;26.51;49.31;95204.84;5113528;28;1045;-56
2023/05/26 09:24:19;;;;;;;;;;;;;;;26.70;49.46;95200.66;5113227;28;1096;-55
2023/05/26 09:26:47;;;;;;;;;;;;;;;26.75;49.26;95202.59;5120548;28;1913;-55
2023/05/26 09:29:14;;;;;;;;;;;;;;;26.97;51.57;95195.09;5133926;28;1049;-56
2023/05/26 09:31:41;;;;;;;;;;;;;;;27.25;50.98;95191.19;5134163;28;1047;-56
2023/05/26 09:34:08;;;;;;;;;;;;;;;26.72;50.81;95192.16;5124079;27;2918;-56
2023/05/26 09:36:35;;;;;;;;;;;;;;;26.15;52.79;95193.53;5132473;28;2911;-55
2023/05/26 09:39:01;;;;;;;;;;;;;;;25.60;49.91;95200.81;5133547;28;1107;-55
2023/05/26 09:41:54;;;;;;;;;;;;;;;25.37;52.50;95188.19;5133795;28;1221;-55
2023/05/26 09:44:20;;;;;;;;;;;;;;;25.27;54.75;95183.41;5113614;28;1262;-55
2023/05/26 09:46:46;;;;;;;;;;;;;;;25.33;51.51;95185.16;5133815;28;1909;-55
2023/05/26 09:49:18;;;;;;;;;;;;;;;25.70;50.76;95173.53;5133973;28;957;-55
2023/05/26 09:51:45;;;;;;;;;;;;;;;25.90;52.12;95176.53;5133783;28;1044;-55
2023/05/26 09:54:12;;;;;;;;;;;;;;;25.93;54.61;95167.00;5133666;28;1226;-56
2023/05/26 09:56:52;;;;;;;;;;;;;;;26.26;53.44;95165.97;5133938;28;1034;-56
2023/05/26 09:59:18;;;;;;;;;;;;;;;26.06;54.13;95163.84;5134030;28;968;-55
2023/05/26 10:01:46;;;;;;;;;;;;;;;25.74;53.14;95157.44;5149570;27;1051;-55
2023/05/26 10:04:13;;;;;;;;;;;;;;;25.47;52.73;95167.25;5134064;27;973;-57
2023/05/26 10:06:40;;;;;;;;;;;;;;;25.70;52.42;95171.63;5137571;27;1909;-57
2023/05/26 10:09:07;;;;;;;;;;;;;;;26.31;49.60;95165.19;5137318;27;1869;-56
2023/05/26 10:11:38;;;;;;;;;;;;;;;26.51;48.12;95170.03;5137277;27;1044;-56
2023/05/26 10:14:05;;;;;;;;;;;;;;;26.59;49.29;95160.50;5137178;27;1132;-56
2023/05/26 10:16:32;;;;;;;;;;;;;;;26.71;49.33;95161.16;5137049;27;1061;-57
2023/05/26 10:18:58;;;;;;;;;;;;;;;26.66;47.22;95156.47;5137421;27;980;-57
2023/05/26 10:21:28;;;;;;;;;;;;;;;26.77;51.72;95162.88;5131310;27;2544;-56
2023/05/26 10:24:02;;;;;;;;;;;;;;;26.34;48.83;95166.59;5116491;28;1034;-56
2023/05/26 10:26:43;;;;;;;;;;;;;;;26.32;48.86;95160.53;5121048;27;1914;-56
2023/05/26 10:29:14;;;;;;;;;;;;;;;26.35;47.92;95158.13;5137326;27;1039;-56
2023/05/26 10:31:40;;;;;;;;;;;;;;;26.38;46.56;95164.97;5136975;27;1128;-56
2023/05/26 10:34:13;;;;;;;;;;;;;;;26.39;45.79;95152.91;5137078;27;1207;-56
2023/05/26 10:36:39;;;;;;;;;;;;;;;26.29;46.95;95145.44;5118610;27;1049;-56
2023/05/26 10:39:11;;;;;;;;;;;;;;;26.33;45.37;95141.06;5136797;27;1045;-56
2023/05/26 10:41:38;;;;;;;;;;;;;;;26.10;44.64;95134.03;5136713;27;1049;-56
2023/05/26 10:44:04;;;;;;;;;;;;;;;26.02;46.20;95120.78;5136660;27;1060;-56
2023/05/26 10:46:44;;;;;;;;;;;;;;;26.14;45.65;95115.97;5136709;27;1998;-56
2023/05/26 10:49:20;;;;;;;;;;;;;;;26.21;41.79;95124.81;5136729;27;1012;-56
2023/05/26 10:51:51;;;;;;;;;;;;;;;26.27;45.05;95114.72;5136436;27;1041;-56
2023/05/26 10:54:26;;;;;;;;;;;;;;;26.18;43.52;95122.59;5136543;27;1091;-56
2023/05/26 10:56:53;;;;;;;;;;;;;;;26.35;46.31;95121.63;5118092;27;2675;-56
2023/05/26 10:59:38;;;;;;;;;;;;;;;26.07;46.38;95126.34;5115612;28;1053;-56
2023/05/26 11:02:05;;;;;;;;;;;;;;;25.63;46.28;95123.63;5115764;28;1049;-56
2023/05/26 11:04:47;;;;;;;;;;;;;;;25.22;45.79;95148.56;5115651;28;1120;-56
2023/05/26 11:07:27;;;;;;;;;;;;;;;24.57;48.14;95152.81;5115782;28;1908;-56
2023/05/26 11:10:05;;;;;;;;;;;;;;;23.94;50.44;95149.22;5115667;28;1112;-56
2023/05/26 11:12:46;;;;;;;;;;;;;;;23.52;52.39;95144.03;5115550;28;1049;-56
2023/05/26 11:15:28;;;;;;;;;;;;;;;23.08;55.52;95146.41;5115124;28;1113;-57
2023/05/26 11:17:56;;;;;;;;;;;;;;;22.92;51.90;95159.69;5122664;27;2015;-56
2023/05/26 11:20:23;;;;;;;;;;;;;;;22.69;52.13;95154.22;5135652;27;1199;-56
2023/05/26 11:22:51;;;;;;;;;;;;;;;22.74;52.36;95154.34;5135962;27;1135;-56
2023/05/26 11:25:17;;;;;;;;;;;;;;;22.87;51.47;95156.00;5135594;27;1882;-56
2023/05/26 11:27:46;;;;;;;;;;;;;;;22.76;53.47;95163.94;5135732;27;1189;-56
2023/05/26 11:30:13;;;;;;;;;;;;;;;22.58;52.99;95170.34;5135780;27;1425;-56
2023/05/26 11:32:49;;;;;;;;;;;;;;;22.65;51.83;95185.72;5135701;27;1052;-56
2023/05/26 11:35:21;;;;;;;;;;;;;;;23.07;52.49;95172.00;5134036;27;2577;-56
2023/05/26 11:37:47;;;;;;;;;;;;;;;23.42;52.42;95179.31;5135367;27;1185;-56
2023/05/26 11:40:14;;;;;;;;;;;;;;;23.65;53.20;95183.88;5135242;27;1039;-56
2023/05/26 11:42:43;;;;;;;;;;;;;;;23.76;53.00;95185.72;5117650;27;961;-56
2023/05/26 11:45:10;;;;;;;;;;;;;;;23.92;51.76;95195.94;5135728;27;1909;-56
2023/05/26 11:47:36;;;;;;;;;;;;;;;24.37;51.99;95197.00;5135327;27;1096;-56
2023/05/26 11:50:09;;;;;;;;;;;;;;;24.27;49.14;95203.09;5135099;27;1096;-56
2023/05/26 11:52:40;;;;;;;;;;;;;;;24.21;46.36;95193.16;5134319;27;2519;-57
2023/05/26 11:55:06;;;;;;;;;;;;;;;24.29;51.14;95189.22;5133954;27;2865;-57
2023/05/26 11:57:34;;;;;;;;;;;;;;;24.81;49.31;95190.91;5135169;27;1107;-57
2023/05/26 12:00:05;;;;;;;;;;;;;;;25.11;48.15;95185.88;5134959;27;1120;-56
2023/05/26 12:02:31;;;;;;;;;;;;;;;24.73;49.29;95183.94;5135421;27;1287;-56
2023/05/26 12:04:57;;;;;;;;;;;;;;;25.05;48.90;95180.63;5135112;27;1988;-57
2023/05/26 12:07:28;;;;;;;;;;;;;;;25.28;46.79;95177.66;5117048;27;977;-57
2023/05/26 12:10:04;;;;;;;;;;;;;;;24.91;45.07;95175.50;5135045;27;1149;-57
2023/05/26 12:12:33;;;;;;;;;;;;;;;24.51;46.21;95167.44;5134998;27;961;-56
2023/05/26 12:15:02;;;;;;;;;;;;;;;24.14;47.27;95163.25;5134903;27;1019;-57
2023/05/26 12:17:28;;;;;;;;;;;;;;;24.02;48.77;95161.66;5135073;27;1005;-56
2023/05/26 12:19:55;;;;;;;;;;;;;;;24.20;51.16;95152.44;5134566;27;1223;-57
2023/05/26 12:22:27;;;;;;;;;;;;;;;24.49;52.02;95153.19;5134544;27;1100;-57
2023/05/26 12:24:58;;;;;;;;;;;;;;;24.85;53.23;95149.16;5116761;27;961;-57
2023/05/26 12:27:33;;;;;;;;;;;;;;;24.80;50.94;95157.28;5133844;27;1321;-57
2023/05/26 12:29:59;;;;;;;;;;;;;;;24.72;50.01;95161.25;5134741;27;1213;-57
2023/05/26 12:32:25;;;;;;;;;;;;;;;24.46;52.43;95151.78;5134695;27;989;-57
2023/05/26 12:34:51;;;;;;;;;;;;;;;24.34;49.34;95148.31;5134571;27;1045;-56
2023/05/26 12:37:18;;;;;;;;;;;;;;;24.25;52.29;95150.63;5134413;27;945;-56
2023/05/26 12:39:44;;;;;;;;;;;;;;;24.20;54.18;95141.50;5134231;27;1045;-56
2023/05/26 12:42:10;;;;;;;;;;;;;;;24.00;56.62;95141.97;5134411;27;1107;-56
2023/05/26 12:44:38;;;;;;;;;;;;;;;23.67;56.75;95138.06;5134785;27;1040;-56
2023/05/26 12:50:26;;;;;;;;;;;;;;;23.54;61.97;95134.56;5131364;27;1137;-56
2023/05/26 12:52:52;;;;;;;;;;;;;;;23.64;57.31;95135.81;5133999;27;1278;-56
2023/05/26 12:55:21;;;;;;;;;;;;;;;23.68;57.28;95132.38;5133920;27;1286;-56
2023/05/26 12:57:47;;;;;;;;;;;;;;;23.76;55.85;95128.41;5134597;27;1323;-56
2023/05/26 13:00:15;;;;;;;;;;;;;;;23.93;52.74;95121.13;5134199;28;1192;-56
2023/05/26 13:02:41;;;;;;;;;;;;;;;23.92;54.33;95124.09;5133922;28;1195;-56